createdAt,value
2018-07-27T05:27:12.246Z,995.4
2018-07-27T05:27:32.387Z,995.4
2018-07-27T05:27:52.567Z,995.4
2018-07-27T05:28:12.706Z,995.3
2018-07-27T05:28:32.879Z,995.3
2018-07-27T05:28:53.047Z,995.3
2018-07-27T05:29:13.207Z,995.4
2018-07-27T05:29:33.339Z,995.4
2018-07-27T05:29:53.577Z,995.4
2018-07-27T05:30:13.734Z,995.3
2018-07-27T05:30:33.841Z,995.3
2018-07-27T05:30:54.006Z,995.4
2018-07-27T05:31:14.174Z,995.3
2018-07-27T05:31:34.347Z,995.4
2018-07-27T05:31:54.591Z,995.3
2018-07-27T05:32:14.751Z,995.4
2018-07-27T05:32:34.882Z,995.4
2018-07-27T05:32:55.052Z,995.4
2018-07-27T05:33:15.220Z,995.4
2018-07-27T05:33:35.361Z,995.4
2018-07-27T05:33:55.506Z,995.4
2018-07-27T05:34:15.717Z,995.4
2018-07-27T05:34:35.912Z,995.4
2018-07-27T05:34:56.070Z,995.4
2018-07-27T05:35:16.201Z,995.4
2018-07-27T05:35:36.342Z,995.3
2018-07-27T05:35:56.543Z,995.4
2018-07-27T05:36:16.740Z,995.3
2018-07-27T05:36:36.891Z,995.3
2018-07-27T05:36:57.059Z,995.4
2018-07-27T05:37:17.247Z,995.3
2018-07-27T05:37:37.413Z,995.3
2018-07-27T05:37:57.742Z,995.4
2018-07-27T06:05:55.281Z,995.3
2018-07-27T06:06:15.449Z,995.3
2018-07-27T06:06:35.602Z,995.3
2018-07-27T06:06:55.766Z,995.3
2018-07-27T06:07:16.004Z,995.3
2018-07-27T06:07:36.177Z,995.3
2018-07-27T06:07:56.345Z,995.3
2018-07-27T06:08:16.511Z,995.3
2018-07-27T06:08:36.673Z,995.3
2018-07-27T06:08:56.930Z,995.3
2018-07-27T06:09:17.109Z,995.3
2018-07-27T06:09:37.275Z,995.3
2018-07-27T06:09:57.453Z,995.4
2018-07-27T06:10:17.594Z,995.4
2018-07-27T06:10:37.764Z,995.4
2018-07-27T06:10:57.962Z,995.4
2018-07-27T06:11:18.221Z,995.4
2018-07-27T06:11:38.318Z,995.4
2018-07-27T06:11:58.471Z,995.4
2018-07-27T06:12:18.620Z,995.4
2018-07-27T06:12:38.793Z,995.4
2018-07-27T06:12:59.019Z,995.4
2018-07-27T06:13:19.192Z,995.4
2018-07-27T06:13:39.326Z,995.4
2018-07-27T06:13:59.476Z,995.4
2018-07-27T06:14:19.666Z,995.4
2018-07-27T06:14:39.851Z,995.4
2018-07-27T06:14:59.997Z,995.4
2018-07-27T06:16:02.323Z,995.3
2018-07-27T06:16:22.492Z,995.4
2018-07-27T06:16:42.647Z,995.4
2018-07-27T06:17:02.857Z,995.4
2018-07-27T06:17:23.058Z,995.3
2018-07-27T06:17:43.216Z,995.4
2018-07-27T06:18:03.524Z,995.4
2018-07-27T06:18:23.603Z,995.4
2018-07-27T06:18:43.762Z,995.4
2018-07-27T06:19:03.918Z,995.4
2018-07-27T06:19:24.073Z,995.4
2018-07-27T06:19:44.259Z,995.4
2018-07-27T06:20:04.440Z,995.4
2018-07-27T06:20:24.615Z,995.4
2018-07-27T06:20:44.796Z,995.4
2018-07-27T06:21:05.062Z,995.4
2018-07-27T06:21:25.195Z,995.4
2018-07-27T06:21:45.386Z,995.4
2018-07-27T06:22:05.615Z,995.4
2018-07-27T06:22:25.770Z,995.4
2018-07-27T06:22:45.968Z,995.4
2018-07-27T06:23:06.205Z,995.4
2018-07-27T06:23:26.430Z,995.4
2018-07-27T06:23:46.740Z,995.4
2018-07-27T06:24:07.106Z,995.4
2018-07-27T06:24:27.689Z,995.4
2018-07-27T06:24:47.792Z,995.5
2018-07-27T06:25:07.941Z,995.5
2018-07-27T06:25:28.094Z,995.4
2018-07-27T06:25:48.261Z,995.4
2018-07-27T06:26:08.449Z,995.4
2018-07-27T06:26:28.632Z,995.4
2018-07-27T06:26:48.793Z,995.5
2018-07-27T06:27:08.957Z,995.4
2018-07-27T06:27:29.141Z,995.5
2018-07-27T06:27:49.309Z,995.5
2018-07-27T06:28:09.538Z,995.5
2018-07-27T06:28:29.648Z,995.5
2018-07-27T06:28:49.779Z,995.5
2018-07-27T06:29:10.045Z,995.4
2018-07-27T06:29:30.326Z,995.4
2018-07-27T06:29:50.516Z,995.5
2018-07-27T06:30:10.836Z,995.5
2018-07-27T06:30:31.018Z,995.4
2018-07-27T06:30:51.159Z,995.5
2018-07-27T06:31:11.323Z,995.5
2018-07-27T06:31:31.490Z,995.5
2018-07-27T06:31:51.661Z,995.5
2018-07-27T06:32:11.785Z,995.5
2018-07-27T06:32:31.961Z,995.5
2018-07-27T06:32:52.137Z,995.5
2018-07-27T06:33:12.336Z,995.5
2018-07-27T06:33:32.487Z,995.5
2018-07-27T06:33:52.683Z,995.5
2018-07-27T06:34:12.854Z,995.5
2018-07-27T06:34:33.007Z,995.5
2018-07-27T06:34:53.200Z,995.5
2018-07-27T06:35:13.402Z,995.5
2018-07-27T06:35:33.544Z,995.5
2018-07-27T06:35:53.700Z,995.5
2018-07-27T06:36:13.910Z,995.5
2018-07-27T06:36:34.120Z,995.5
2018-07-27T06:36:54.278Z,995.5
2018-07-27T06:37:14.400Z,995.5
2018-07-27T06:37:34.609Z,995.5
2018-07-27T06:37:54.921Z,995.5
2018-07-27T06:38:15.098Z,995.5
2018-07-27T06:38:35.281Z,995.5
2018-07-27T06:38:55.511Z,995.5
2018-07-27T06:39:15.724Z,995.5
2018-07-27T06:39:35.847Z,995.5
2018-07-27T06:39:56.046Z,995.5
2018-07-27T06:40:16.268Z,995.5
2018-07-27T06:40:36.519Z,995.5
2018-07-27T06:40:56.706Z,995.5
2018-07-27T06:41:16.924Z,995.5
2018-07-27T06:41:37.129Z,995.5
2018-07-27T06:41:57.289Z,995.5
2018-07-27T06:42:17.572Z,995.5
2018-07-27T06:42:37.808Z,995.5
2018-07-27T06:42:58.023Z,995.5
2018-07-27T06:43:18.372Z,995.5
2018-07-27T06:43:38.581Z,995.5
2018-07-27T06:43:58.823Z,995.5
2018-07-27T06:44:19.055Z,995.5
2018-07-27T06:44:39.277Z,995.5
2018-07-27T06:44:59.489Z,995.5
2018-07-27T06:45:19.877Z,995.5
2018-07-27T06:45:40.003Z,995.5
2018-07-27T06:46:00.273Z,995.5
2018-07-27T06:46:20.511Z,995.5
2018-07-27T06:46:40.731Z,995.4
2018-07-27T06:47:00.964Z,995.5
2018-07-27T06:47:21.192Z,995.4
2018-07-27T06:47:41.500Z,995.4
2018-07-27T06:48:01.686Z,995.4
2018-07-27T06:48:21.911Z,995.4
2018-07-27T06:48:42.102Z,995.4
2018-07-27T06:49:02.282Z,995.4
2018-07-27T06:49:22.499Z,995.4
2018-07-27T06:49:42.681Z,995.4
2018-07-27T06:50:02.874Z,995.5
2018-07-27T06:50:23.152Z,995.5
2018-07-27T06:50:43.302Z,995.5
2018-07-27T06:51:03.488Z,995.5
2018-07-27T06:51:23.711Z,995.5
2018-07-27T06:51:43.912Z,995.5
2018-07-27T06:52:04.136Z,995.5
2018-07-27T06:52:24.371Z,995.5
2018-07-27T06:52:44.564Z,995.5
2018-07-27T06:53:04.760Z,995.5
2018-07-27T06:53:25.000Z,995.5
2018-07-27T06:53:45.214Z,995.5
2018-07-27T06:54:05.433Z,995.5
2018-07-27T06:54:25.613Z,995.5
2018-07-27T06:54:45.803Z,995.6
2018-07-27T06:55:05.982Z,995.5
2018-07-27T06:55:26.232Z,995.5
2018-07-27T06:55:46.436Z,995.6
2018-07-27T06:56:06.689Z,995.5
2018-07-27T06:56:27.044Z,995.5
2018-07-27T06:56:47.222Z,995.5
2018-07-27T06:57:07.356Z,995.4
2018-07-27T06:57:27.600Z,995.5
2018-07-27T06:57:47.762Z,995.5
2018-07-27T06:58:08.101Z,995.5
2018-07-27T06:58:28.286Z,995.4
2018-07-27T06:58:48.488Z,995.4
2018-07-27T06:59:08.695Z,995.4
2018-07-27T06:59:28.946Z,995.4
2018-07-27T06:59:49.163Z,995.4
2018-07-27T07:00:09.403Z,995.4
2018-07-27T07:00:29.726Z,995.5
2018-07-27T07:00:50.048Z,995.4
2018-07-27T07:01:10.216Z,995.3
2018-07-27T07:01:30.499Z,995.4
2018-07-27T07:01:50.712Z,995.4
2018-07-27T07:02:10.966Z,995.4
2018-07-27T07:02:31.192Z,995.4
2018-07-27T07:02:51.422Z,995.3
2018-07-27T07:03:11.682Z,995.4
2018-07-27T07:03:31.931Z,995.3
2018-07-27T07:03:52.193Z,995.4
2018-07-27T07:04:12.386Z,995.4
2018-07-27T07:04:32.697Z,995.3
2018-07-27T07:04:53.116Z,995.3
2018-07-27T07:05:13.295Z,995.3
2018-07-27T07:05:33.562Z,995.3
2018-07-27T07:05:53.941Z,995.4
2018-07-27T07:06:14.160Z,995.3
2018-07-27T07:06:34.387Z,995.4
2018-07-27T07:06:54.632Z,995.3
2018-07-27T07:07:14.829Z,995.3
2018-07-27T07:07:35.073Z,995.3
2018-07-27T07:07:55.243Z,995.3
2018-07-27T07:08:15.487Z,995.3
2018-07-27T07:08:35.666Z,995.3
2018-07-27T07:08:55.947Z,995.4
2018-07-27T07:09:16.337Z,995.3
2018-07-27T07:09:36.618Z,995.3
2018-07-27T07:09:56.829Z,995.4
2018-07-27T07:10:17.009Z,995.3
2018-07-27T07:10:37.165Z,995.3
2018-07-27T07:10:57.399Z,995.4
2018-07-27T07:11:17.643Z,995.4
2018-07-27T07:11:37.831Z,995.4
2018-07-27T07:11:58.043Z,995.3
2018-07-27T07:12:18.287Z,995.3
2018-07-27T07:12:38.540Z,995.3
2018-07-27T07:12:58.726Z,995.3
2018-07-27T07:13:19.003Z,995.3
2018-07-27T07:13:39.169Z,995.3
2018-07-27T07:13:59.471Z,995.3
2018-07-27T07:14:19.822Z,995.3
2018-07-27T07:14:40.384Z,995.3
2018-07-27T07:15:00.579Z,995.3
2018-07-27T07:15:20.793Z,995.3
2018-07-27T07:15:41.031Z,995.4
2018-07-27T07:16:03.581Z,995.3
2018-07-27T07:16:25.511Z,995.3
2018-07-27T07:16:50.146Z,995.4
2018-07-27T07:17:11.741Z,995.3
2018-07-27T07:17:32.177Z,995.4
2018-07-27T07:17:52.613Z,995.4
2018-07-27T07:18:12.778Z,995.3
2018-07-27T07:18:32.989Z,995.3
2018-07-27T07:18:53.668Z,995.3
2018-07-27T07:19:13.893Z,995.3
2018-07-27T07:19:34.107Z,995.3
2018-07-27T07:19:54.279Z,995.3
2018-07-27T07:20:14.498Z,995.3
2018-07-27T07:20:34.785Z,995.3
2018-07-27T07:20:55.006Z,995.3
2018-07-27T07:21:15.185Z,995.3
2018-07-27T07:21:35.411Z,995.3
2018-07-27T07:21:55.814Z,995.3
2018-07-27T07:22:16.078Z,995.3
2018-07-27T07:22:36.320Z,995.3
2018-07-27T07:22:57.092Z,995.3
2018-07-27T07:23:18.501Z,995.3
2018-07-27T07:23:38.665Z,995.3
2018-07-27T07:23:58.881Z,995.3
2018-07-27T07:24:19.124Z,995.3
2018-07-27T07:24:39.381Z,995.3
2018-07-27T07:24:59.637Z,995.4
2018-07-27T07:25:20.029Z,995.3
2018-07-27T07:25:40.249Z,995.3
2018-07-27T07:26:00.573Z,995.3
2018-07-27T07:26:20.583Z,995.3
2018-07-27T07:26:40.812Z,995.3
2018-07-27T07:27:01.231Z,995.3
2018-07-27T07:27:21.489Z,995.3
2018-07-27T07:27:41.728Z,995.3
2018-07-27T07:28:01.991Z,995.2
2018-07-27T07:28:22.192Z,995.3
2018-07-27T07:28:42.460Z,995.3
2018-07-27T07:29:02.959Z,995.3
2018-07-27T07:29:23.151Z,995.3
2018-07-27T07:29:43.372Z,995.3
2018-07-27T07:30:03.542Z,995.3
2018-07-27T07:30:23.749Z,995.3
2018-07-27T07:30:43.955Z,995.3
2018-07-27T07:31:04.127Z,995.3
2018-07-27T07:31:24.328Z,995.3
2018-07-27T07:31:44.526Z,995.3
2018-07-27T07:32:04.703Z,995.3
2018-07-27T07:32:24.899Z,995.3
2018-07-27T07:32:45.120Z,995.3
2018-07-27T07:33:05.429Z,995.3
2018-07-27T07:33:25.899Z,995.3
2018-07-27T07:33:46.072Z,995.3
2018-07-27T07:34:06.320Z,995.3
2018-07-27T07:34:26.615Z,995.3
2018-07-27T07:34:48.851Z,995.2
2018-07-27T07:35:09.102Z,995.2
2018-07-27T07:35:29.378Z,995.3
2018-07-27T07:35:49.557Z,995.2
2018-07-27T07:36:09.783Z,995.3
2018-07-27T07:36:30.021Z,995.2
2018-07-27T07:36:50.289Z,995.2
2018-07-27T07:37:10.539Z,995.2
2018-07-27T07:37:30.756Z,995.3
2018-07-27T07:37:50.939Z,995.3
2018-07-27T07:38:11.149Z,995.2
2018-07-27T07:38:31.345Z,995.3
2018-07-27T07:38:51.580Z,995.3
2018-07-27T07:39:11.856Z,995.2
2018-07-27T07:39:32.023Z,995.3
2018-07-27T07:39:52.218Z,995.2
2018-07-27T07:40:12.384Z,995.3
2018-07-27T07:40:32.562Z,995.2
2018-07-27T07:40:52.713Z,995.2
2018-07-27T07:41:12.876Z,995.2
2018-07-27T07:41:33.059Z,995.2
2018-07-27T07:41:53.255Z,995.2
2018-07-27T07:42:13.469Z,995.2
2018-07-27T07:42:33.733Z,995.2
2018-07-27T07:42:53.912Z,995.2
2018-07-27T07:43:14.122Z,995.3
2018-07-27T07:43:34.342Z,995.3
2018-07-27T07:43:54.547Z,995.2
2018-07-27T07:44:14.740Z,995.3
2018-07-27T07:44:34.923Z,995.2
2018-07-27T07:44:55.106Z,995.2
2018-07-27T07:45:15.281Z,995.2
2018-07-27T07:45:35.408Z,995.2
2018-07-27T07:45:55.645Z,995.2
2018-07-27T07:46:15.777Z,995.2
2018-07-27T07:46:35.955Z,995.2
2018-07-27T07:46:56.159Z,995.2
2018-07-27T07:47:16.335Z,995.2
2018-07-27T07:47:36.490Z,995.2
2018-07-27T07:47:56.693Z,995.2
2018-07-27T07:48:16.825Z,995.2
2018-07-27T07:48:37.017Z,995.2
2018-07-27T07:48:57.158Z,995.2
2018-07-27T07:49:17.392Z,995.2
2018-07-27T07:49:37.537Z,995.2
2018-07-27T07:49:57.717Z,995.2
2018-07-27T07:50:17.870Z,995.2
2018-07-27T07:50:38.088Z,995.2
2018-07-27T07:50:58.238Z,995.2
2018-07-27T07:51:18.388Z,995.2
2018-07-27T07:51:38.571Z,995.2
2018-07-27T07:51:58.689Z,995.2
2018-07-27T07:52:18.846Z,995.2
2018-07-27T07:52:39.021Z,995.2
2018-07-27T07:52:59.153Z,995.2
2018-07-27T07:53:19.981Z,995.2
2018-07-27T07:53:40.146Z,995.2
2018-07-27T07:54:00.309Z,995.2
2018-07-27T07:54:20.520Z,995.2
2018-07-27T07:54:40.654Z,995.2
2018-07-27T07:55:00.829Z,995.1
2018-07-27T07:55:20.984Z,995.2
2018-07-27T07:55:41.163Z,995.1
2018-07-27T07:56:01.414Z,995.2
2018-07-27T07:56:21.560Z,995.1
2018-07-27T07:56:41.933Z,995.2
2018-07-27T07:57:02.083Z,995.1
2018-07-27T07:57:22.244Z,995.2
2018-07-27T07:57:42.427Z,995.1
2018-07-27T07:58:02.604Z,995.2
2018-07-27T07:58:22.784Z,995.2
2018-07-27T07:58:43.194Z,995.2
2018-07-27T07:59:03.355Z,995.1
2018-07-27T07:59:23.518Z,995.2
2018-07-27T07:59:43.690Z,995.1
2018-07-27T08:00:03.923Z,995.1
2018-07-27T08:00:24.105Z,995.1
2018-07-27T08:00:44.305Z,995.1
2018-07-27T08:01:04.473Z,995.1
2018-07-27T08:01:24.630Z,995.1
2018-07-27T08:01:44.793Z,995.1
2018-07-27T08:02:04.953Z,995.1
2018-07-27T08:02:25.125Z,995.1
2018-07-27T08:02:45.274Z,995.1
2018-07-27T08:03:06.032Z,995.1
2018-07-27T08:03:29.707Z,995.1
2018-07-27T08:03:49.897Z,995.1
2018-07-27T08:04:10.060Z,995.1
2018-07-27T08:04:30.236Z,995.1
2018-07-27T08:04:50.384Z,995.1
2018-07-27T08:05:10.577Z,995.1
2018-07-27T08:05:30.821Z,995.1
2018-07-27T08:05:50.956Z,995.1
2018-07-27T08:06:11.128Z,995.1
2018-07-27T08:06:31.257Z,995.1
2018-07-27T08:06:51.385Z,995.1
2018-07-27T08:07:11.567Z,995.1
2018-07-27T08:07:31.751Z,995.1
2018-07-27T08:07:51.905Z,995.1
2018-07-27T08:08:12.089Z,995.1
2018-07-27T08:08:32.298Z,995.1
2018-07-27T08:08:52.494Z,995.1
2018-07-27T08:09:12.667Z,995.1
2018-07-27T08:09:32.826Z,995.1
2018-07-27T08:09:53.015Z,995.1
2018-07-27T08:10:13.177Z,995.1
2018-07-27T08:10:33.379Z,995.1
2018-07-27T08:10:53.570Z,995
2018-07-27T08:11:13.823Z,995.1
2018-07-27T08:11:33.940Z,995.1
2018-07-27T08:11:54.099Z,995.1
2018-07-27T08:12:14.282Z,995.1
2018-07-27T08:12:34.430Z,995.1
2018-07-27T08:12:54.613Z,995.1
2018-07-27T08:13:18.271Z,995.1
2018-07-27T08:13:38.441Z,995.1
2018-07-27T08:13:58.608Z,995.1
2018-07-27T08:14:18.759Z,995.1
2018-07-27T08:14:38.910Z,995.1
2018-07-27T08:14:59.095Z,995.1
2018-07-27T08:15:19.271Z,995
2018-07-27T08:15:39.428Z,995
2018-07-27T08:15:59.584Z,995
2018-07-27T08:16:19.756Z,995.1
2018-07-27T08:16:39.928Z,995
2018-07-27T08:17:00.108Z,995
2018-07-27T08:17:20.332Z,995
2018-07-27T08:17:40.460Z,995
2018-07-27T08:18:00.614Z,995
2018-07-27T08:18:20.772Z,995
2018-07-27T08:18:40.944Z,995
2018-07-27T08:19:01.107Z,995
2018-07-27T08:19:21.277Z,995
2018-07-27T08:19:41.464Z,995
2018-07-27T08:20:01.592Z,995
2018-07-27T08:20:21.772Z,995
2018-07-27T08:20:42.010Z,995
2018-07-27T08:21:02.181Z,995
2018-07-27T08:21:22.330Z,994.9
2018-07-27T08:21:42.506Z,994.9
2018-07-27T08:22:02.680Z,994.9
2018-07-27T08:22:22.837Z,994.9
2018-07-27T08:22:43.025Z,995
2018-07-27T08:23:03.174Z,995
2018-07-27T08:23:23.346Z,994.9
2018-07-27T08:23:43.543Z,994.9
2018-07-27T08:24:03.808Z,994.9
2018-07-27T08:24:23.986Z,994.9
2018-07-27T08:24:44.206Z,994.9
2018-07-27T08:25:04.385Z,994.9
2018-07-27T08:25:24.599Z,994.9
2018-07-27T08:25:44.763Z,994.9
2018-07-27T08:26:04.915Z,994.9
2018-07-27T08:26:25.062Z,994.9
2018-07-27T08:26:45.274Z,995
2018-07-27T08:27:05.493Z,994.9
2018-07-27T08:27:25.642Z,994.9
2018-07-27T08:27:45.872Z,994.9
2018-07-27T08:28:06.070Z,994.9
2018-07-27T08:28:26.254Z,994.9
2018-07-27T08:28:46.411Z,994.9
2018-07-27T08:29:06.601Z,994.9
2018-07-27T08:29:26.783Z,994.9
2018-07-27T08:29:46.939Z,994.9
2018-07-27T08:30:07.094Z,994.9
2018-07-27T08:30:27.335Z,994.9
2018-07-27T08:30:47.540Z,994.9
2018-07-27T08:31:07.714Z,994.8
2018-07-27T08:31:27.959Z,994.8
2018-07-27T08:31:48.107Z,994.8
2018-07-27T08:32:08.341Z,994.8
2018-07-27T08:32:28.529Z,994.8
2018-07-27T08:32:48.713Z,994.9
2018-07-27T08:33:08.923Z,994.8
2018-07-27T08:33:29.081Z,994.9
2018-07-27T08:33:49.230Z,994.8
2018-07-27T08:34:09.408Z,994.9
2018-07-27T08:34:29.540Z,994.9
2018-07-27T08:34:49.746Z,994.9
2018-07-27T08:35:10.052Z,994.8
2018-07-27T08:35:30.328Z,994.8
2018-07-27T08:35:50.512Z,994.8
2018-07-27T08:36:10.686Z,994.9
2018-07-27T08:36:30.858Z,994.8
2018-07-27T08:36:51.060Z,994.8
2018-07-27T08:37:11.199Z,994.8
2018-07-27T08:37:31.360Z,994.8
2018-07-27T08:37:51.498Z,994.8
2018-07-27T08:38:11.652Z,994.8
2018-07-27T08:38:31.890Z,994.8
2018-07-27T08:38:52.094Z,994.8
2018-07-27T08:39:12.296Z,994.7
2018-07-27T08:39:32.499Z,994.8
2018-07-27T08:39:52.623Z,994.8
2018-07-27T08:40:12.795Z,994.7
2018-07-27T08:40:32.965Z,994.7
2018-07-27T08:40:53.160Z,994.8
2018-07-27T08:41:13.317Z,994.8
2018-07-27T08:41:33.586Z,994.8
2018-07-27T08:41:53.775Z,994.7
2018-07-27T08:42:13.944Z,994.8
2018-07-27T08:42:34.115Z,994.7
2018-07-27T08:42:54.297Z,994.7
2018-07-27T08:43:16.487Z,994.8
2018-07-27T08:43:36.693Z,994.7
2018-07-27T08:43:56.864Z,994.7
2018-07-27T08:44:17.070Z,994.7
2018-07-27T08:44:37.239Z,994.7
2018-07-27T08:44:57.414Z,994.7
2018-07-27T08:45:17.758Z,994.7
2018-07-27T08:45:37.915Z,994.7
2018-07-27T08:45:58.038Z,994.7
2018-07-27T08:46:18.213Z,994.7
2018-07-27T08:46:38.365Z,994.7
2018-07-27T08:46:58.546Z,994.7
2018-07-27T08:47:18.774Z,994.7
2018-07-27T08:47:38.901Z,994.7
2018-07-27T08:47:59.087Z,994.7
2018-07-27T08:48:19.284Z,994.7
2018-07-27T08:48:39.435Z,994.7
2018-07-27T08:48:59.589Z,994.7
2018-07-27T08:49:19.780Z,994.7
2018-07-27T08:49:39.938Z,994.7
2018-07-27T08:50:00.086Z,994.7
2018-07-27T08:50:20.270Z,994.7
2018-07-27T08:50:40.452Z,994.7
2018-07-27T08:51:00.645Z,994.7
2018-07-27T08:51:20.834Z,994.7
2018-07-27T08:51:41.009Z,994.6
2018-07-27T08:52:01.182Z,994.7
2018-07-27T08:52:21.361Z,994.7
2018-07-27T08:52:41.587Z,994.7
2018-07-27T08:53:01.760Z,994.6
2018-07-27T08:54:44.233Z,994.7
2018-07-27T08:55:04.410Z,994.7
2018-07-27T08:55:24.564Z,994.6
2018-07-27T08:55:44.709Z,994.6
2018-07-27T08:56:04.875Z,994.6
2018-07-27T08:56:25.176Z,994.6
2018-07-27T08:56:45.342Z,994.6
2018-07-27T08:57:05.519Z,994.6
2018-07-27T08:57:25.667Z,994.6
2018-07-27T08:57:45.858Z,994.6
2018-07-27T08:58:06.021Z,994.6
2018-07-27T08:58:26.171Z,994.6
2018-07-27T08:58:46.321Z,994.6
2018-07-27T08:59:06.462Z,994.6
2018-07-27T08:59:26.617Z,994.6
2018-07-27T08:59:46.756Z,994.6
2018-07-27T09:00:06.920Z,994.6
2018-07-27T09:00:27.072Z,994.6
2018-07-27T09:00:47.241Z,994.6
2018-07-27T09:01:07.420Z,994.6
2018-07-27T09:01:27.589Z,994.7
2018-07-27T09:01:47.755Z,994.7
2018-07-27T09:02:07.954Z,994.6
2018-07-27T09:02:28.126Z,994.6
2018-07-27T09:02:48.279Z,994.6
2018-07-27T09:03:08.454Z,994.6
2018-07-27T09:03:28.637Z,994.6
2018-07-27T09:03:48.793Z,994.6
2018-07-27T09:04:08.961Z,994.6
2018-07-27T09:04:29.129Z,994.6
2018-07-27T09:04:49.333Z,994.6
2018-07-27T09:05:09.530Z,994.6
2018-07-27T09:05:29.676Z,994.6
2018-07-27T09:05:49.842Z,994.6
2018-07-27T09:06:10.286Z,994.6
2018-07-27T09:06:30.443Z,994.6
2018-07-27T09:06:50.617Z,994.7
2018-07-27T09:07:10.794Z,994.6
2018-07-27T09:07:30.963Z,994.7
2018-07-27T09:07:51.108Z,994.6
2018-07-27T09:08:11.372Z,994.7
2018-07-27T09:08:31.555Z,994.7
2018-07-27T09:08:51.683Z,994.7
2018-07-27T09:09:11.805Z,994.7
2018-07-27T09:09:31.958Z,994.6
2018-07-27T09:09:52.130Z,994.6
2018-07-27T09:10:13.422Z,994.6
2018-07-27T09:10:33.592Z,994.6
2018-07-27T09:10:53.775Z,994.6
2018-07-27T09:11:13.934Z,994.6
2018-07-27T09:11:34.067Z,994.6
2018-07-27T09:11:54.278Z,994.6
2018-07-27T09:12:14.459Z,994.6
2018-07-27T09:12:34.612Z,994.6
2018-07-27T09:12:54.800Z,994.6
2018-07-27T09:13:17.990Z,994.6
2018-07-27T09:13:38.259Z,994.6
2018-07-27T09:13:58.435Z,994.6
2018-07-27T09:14:18.577Z,994.6
2018-07-27T09:14:38.765Z,994.6
2018-07-27T09:14:58.885Z,994.6
2018-07-27T09:15:19.090Z,994.6
2018-07-27T09:15:39.248Z,994.5
2018-07-27T09:15:59.446Z,994.6
2018-07-27T09:16:19.632Z,994.6
2018-07-27T09:16:39.792Z,994.6
2018-07-27T09:16:59.935Z,994.6
2018-07-27T09:17:20.141Z,994.6
2018-07-27T09:17:40.261Z,994.6
2018-07-27T09:18:00.407Z,994.6
2018-07-27T09:18:20.600Z,994.6
2018-07-27T09:18:40.788Z,994.6
2018-07-27T09:19:00.975Z,994.6
2018-07-27T09:19:21.169Z,994.6
2018-07-27T09:19:41.318Z,994.6
2018-07-27T09:20:01.475Z,994.6
2018-07-27T09:20:21.635Z,994.6
2018-07-27T09:20:41.811Z,994.5
2018-07-27T09:21:02.020Z,994.6
2018-07-27T09:21:22.249Z,994.6
2018-07-27T09:21:42.702Z,994.5
2018-07-27T09:22:02.891Z,994.5
2018-07-27T09:22:23.071Z,994.6
2018-07-27T09:22:43.247Z,994.5
2018-07-27T09:23:03.874Z,994.5
2018-07-27T09:24:49.878Z,994.5
2018-07-27T09:25:10.285Z,994.6
2018-07-27T09:25:30.075Z,994.6
2018-07-27T09:25:50.373Z,994.6
2018-07-27T09:26:10.511Z,994.6
2018-07-27T09:26:30.662Z,994.6
2018-07-27T09:26:50.837Z,994.7
2018-07-27T09:27:10.994Z,994.7
2018-07-27T09:27:31.156Z,994.7
2018-07-27T09:27:51.320Z,994.7
2018-07-27T09:28:11.495Z,994.7
2018-07-27T09:28:31.640Z,994.7
2018-07-27T09:28:51.809Z,994.7
2018-07-27T09:29:11.969Z,994.7
2018-07-27T09:29:32.172Z,994.6
2018-07-27T09:29:52.299Z,994.7
2018-07-27T09:30:12.456Z,994.7
2018-07-27T09:30:32.613Z,994.7
2018-07-27T09:30:52.762Z,994.7
2018-07-27T09:31:12.936Z,994.7
2018-07-27T09:31:33.082Z,994.7
2018-07-27T09:31:53.251Z,994.7
2018-07-27T09:32:13.420Z,994.7
2018-07-27T09:32:33.741Z,994.7
2018-07-27T09:32:53.896Z,994.7
2018-07-27T09:33:14.060Z,994.7
2018-07-27T09:33:34.309Z,994.7
2018-07-27T09:33:54.477Z,994.7
2018-07-27T09:34:14.731Z,994.6
2018-07-27T09:34:34.903Z,994.6
2018-07-27T09:34:55.184Z,994.7
2018-07-27T09:35:15.754Z,994.6
2018-07-27T09:35:36.031Z,994.6
2018-07-27T09:35:56.211Z,994.6
2018-07-27T09:36:16.413Z,994.6
2018-07-27T09:36:36.563Z,994.6
2018-07-27T09:36:56.711Z,994.6
2018-07-27T09:37:16.912Z,994.6
2018-07-27T09:37:37.105Z,994.5
2018-07-27T09:37:57.259Z,994.5
2018-07-27T09:38:17.434Z,994.5
2018-07-27T09:38:37.624Z,994.6
2018-07-27T09:38:57.790Z,994.6
2018-07-27T09:39:17.986Z,994.6
2018-07-27T09:39:38.136Z,994.6
2018-07-27T09:39:58.313Z,994.5
2018-07-27T09:40:18.475Z,994.5
2018-07-27T09:40:38.832Z,994.6
2018-07-27T09:40:59.029Z,994.6
2018-07-27T09:41:19.182Z,994.6
2018-07-27T09:41:39.349Z,994.7
2018-07-27T09:41:59.539Z,994.6
2018-07-27T09:42:19.710Z,994.6
2018-07-27T09:42:39.864Z,994.5
2018-07-27T09:43:00.034Z,994.6
2018-07-27T09:43:20.272Z,994.6
2018-07-27T09:43:40.429Z,994.6
2018-07-27T09:44:00.854Z,994.6
2018-07-27T09:44:21.023Z,994.5
2018-07-27T09:44:41.183Z,994.5
2018-07-27T09:45:01.332Z,994.5
2018-07-27T09:45:21.494Z,994.6
2018-07-27T09:45:41.663Z,994.5
2018-07-27T09:46:01.828Z,994.5
2018-07-27T09:46:21.997Z,994.5
2018-07-27T09:46:42.206Z,994.5
2018-07-27T09:47:02.376Z,994.5
2018-07-27T09:47:22.574Z,994.5
2018-07-27T09:47:43.008Z,994.5
2018-07-27T09:48:03.180Z,994.5
2018-07-27T09:48:23.355Z,994.5
2018-07-27T09:48:43.508Z,994.4
2018-07-27T09:49:03.726Z,994.4
2018-07-27T09:49:23.881Z,994.3
2018-07-27T09:49:44.054Z,994.4
2018-07-27T09:50:04.234Z,994.4
2018-07-27T09:50:24.395Z,994.4
2018-07-27T09:50:44.600Z,994.4
2018-07-27T09:51:04.767Z,994.3
2018-07-27T09:51:24.971Z,994.4
2018-07-27T09:51:45.214Z,994.4
2018-07-27T09:52:05.359Z,994.4
2018-07-27T09:52:25.525Z,994.4
2018-07-27T09:52:45.737Z,994.4
2018-07-27T09:53:05.944Z,994.4
2018-07-27T09:53:26.136Z,994.4
2018-07-27T09:53:46.356Z,994.4
2018-07-27T09:54:06.624Z,994.3
2018-07-27T09:54:26.779Z,994.3
2018-07-27T09:54:46.953Z,994.3
2018-07-27T09:55:07.134Z,994.3
2018-07-27T09:55:27.334Z,994.3
2018-07-27T09:55:47.463Z,994.3
2018-07-27T09:56:07.635Z,994.4
2018-07-27T09:56:27.789Z,994.4
2018-07-27T09:56:47.990Z,994.4
2018-07-27T09:57:08.147Z,994.4
2018-07-27T09:57:28.444Z,994.4
2018-07-27T09:57:48.682Z,994.4
2018-07-27T09:58:08.817Z,994.4
2018-07-27T09:58:29.035Z,994.4
2018-07-27T09:58:49.228Z,994.4
2018-07-27T09:59:09.382Z,994.4
2018-07-27T09:59:29.515Z,994.3
2018-07-27T09:59:49.653Z,994.3
2018-07-27T10:00:09.824Z,994.3
2018-07-27T10:00:29.975Z,994.3
2018-07-27T10:00:50.128Z,994.2
2018-07-27T10:01:10.352Z,994.2
2018-07-27T10:01:31.013Z,994.2
2018-07-27T10:01:51.240Z,994.2
2018-07-27T10:02:11.583Z,994.2
2018-07-27T10:02:31.738Z,994.2
2018-07-27T10:02:51.871Z,994.1
2018-07-27T10:03:12.349Z,994.1
2018-07-27T10:03:32.573Z,994.1
2018-07-27T10:03:52.868Z,994.2
2018-07-27T10:04:13.011Z,994.2
2018-07-27T10:04:33.180Z,994.2
2018-07-27T10:04:53.355Z,994.2
2018-07-27T10:05:13.519Z,994.2
2018-07-27T10:05:33.890Z,994.3
2018-07-27T10:05:54.160Z,994.3
2018-07-27T10:06:14.256Z,994.3
2018-07-27T10:06:34.480Z,994.3
2018-07-27T10:06:54.768Z,994.3
2018-07-27T10:07:14.926Z,994.3
2018-07-27T10:07:35.060Z,994.2
2018-07-27T10:07:55.245Z,994.2
2018-07-27T10:08:15.469Z,994.2
2018-07-27T10:08:36.706Z,994.2
2018-07-27T10:08:58.284Z,994.2
2018-07-27T10:09:18.435Z,994.1
2018-07-27T10:09:39.483Z,994.1
2018-07-27T10:10:00.710Z,994.1
2018-07-27T10:10:20.880Z,994.1
2018-07-27T10:10:42.044Z,994.1
2018-07-27T10:11:04.160Z,994.1
2018-07-27T10:11:26.347Z,994.1
2018-07-27T10:11:47.270Z,994.1
2018-07-27T10:12:07.877Z,994.1
2018-07-27T10:12:31.568Z,994.1
2018-07-27T10:12:52.646Z,994.1
2018-07-27T10:15:38.859Z,994.1
2018-07-27T10:15:59.043Z,994.1
2018-07-27T10:16:19.242Z,994.1
2018-07-27T10:16:39.429Z,994.1
2018-07-27T10:17:00.729Z,994
2018-07-27T10:17:20.934Z,994.1
2018-07-27T10:17:41.182Z,994
2018-07-27T10:18:02.900Z,994
2018-07-27T10:20:04.959Z,994
2018-07-27T10:20:25.163Z,993.9
2018-07-27T10:20:45.416Z,993.9
2018-07-27T10:21:06.341Z,993.9
2018-07-27T10:21:27.056Z,993.9
2018-07-27T10:21:47.210Z,993.9
2018-07-27T10:22:08.171Z,993.9
2018-07-27T10:22:28.876Z,993.8
2018-07-27T10:22:49.106Z,993.9
2018-07-27T10:23:09.287Z,993.8
2018-07-27T10:23:29.501Z,993.9
2018-07-27T10:23:49.662Z,993.9